createdAt,value
2023-05-06T04:33:19.696Z,5.90
2023-05-06T04:35:54.247Z,6.03
2023-05-06T04:38:23.672Z,6.43
2023-05-06T04:40:51.829Z,6.20
2023-05-06T04:43:19.964Z,6.10
2023-05-06T04:45:49.690Z,5.90
2023-05-06T04:48:22.219Z,5.97
2023-05-06T04:50:50.593Z,5.83
2023-05-06T04:53:18.834Z,6.43
2023-05-06T04:55:47.039Z,6.93
2023-05-06T04:58:15.385Z,6.37
2023-05-06T05:00:43.550Z,6.50
2023-05-06T05:03:11.796Z,6.83
2023-05-06T05:05:41.334Z,7.27
2023-05-06T05:08:11.957Z,5.83
2023-05-06T05:10:42.778Z,6.37
2023-05-06T05:13:10.890Z,6.70
2023-05-06T05:15:39.988Z,6.90
2023-05-06T05:18:09.018Z,6.20
2023-05-06T05:20:37.248Z,6.50
2023-05-06T05:23:06.843Z,6.63
2023-05-06T05:25:34.887Z,6.40
2023-05-06T05:28:03.020Z,6.70
2023-05-06T05:30:31.247Z,6.70
2023-05-06T05:32:59.464Z,6.57
2023-05-06T05:35:27.635Z,6.27
2023-05-06T05:37:55.793Z,7.00
2023-05-06T05:40:25.349Z,6.57
2023-05-06T05:42:53.390Z,7.27
2023-05-06T05:45:21.936Z,6.20
2023-05-06T05:47:50.102Z,5.87
2023-05-06T05:50:18.232Z,6.83
2023-05-06T05:52:46.247Z,6.37
2023-05-06T05:55:14.579Z,6.37
2023-05-06T05:57:44.011Z,6.40
2023-05-06T06:00:13.830Z,6.90
2023-05-06T06:02:42.243Z,6.33
2023-05-06T06:05:10.611Z,6.37
2023-05-06T06:07:39.084Z,6.73
2023-05-06T06:10:08.644Z,6.70
2023-05-06T06:12:36.753Z,6.97
2023-05-06T06:15:07.318Z,6.43
2023-05-06T06:17:35.991Z,7.30
2023-05-06T06:20:05.086Z,6.90
2023-05-06T06:22:33.213Z,6.63
2023-05-06T06:25:01.292Z,7.10
2023-05-06T06:27:29.355Z,8.07
2023-05-06T06:29:57.613Z,7.43
2023-05-06T06:32:27.188Z,8.60
2023-05-06T06:34:55.295Z,7.43
2023-05-06T06:37:23.543Z,7.60
2023-05-06T06:39:51.674Z,7.73
2023-05-06T06:42:19.755Z,8.07
2023-05-06T06:44:48.136Z,7.63
2023-05-06T06:47:16.160Z,8.40
2023-05-06T06:49:45.680Z,7.37
2023-05-06T06:52:13.727Z,8.43
2023-05-06T06:54:41.817Z,7.77
2023-05-06T06:57:10.143Z,7.57
2023-05-06T06:59:38.216Z,7.70
2023-05-06T07:02:06.371Z,7.60
2023-05-06T07:04:34.464Z,8.33
2023-05-06T07:07:04.112Z,8.87
2023-05-06T07:09:33.408Z,7.87
2023-05-06T07:12:03.135Z,8.43
2023-05-06T07:14:32.151Z,8.90
2023-05-06T07:17:00.930Z,8.50
2023-05-06T07:19:29.210Z,8.77
2023-05-06T07:21:57.889Z,8.40
2023-05-06T07:24:27.410Z,7.57
2023-05-06T07:26:55.460Z,7.77
2023-05-06T07:29:23.652Z,8.07
2023-05-06T07:31:51.731Z,7.40
2023-05-06T07:34:20.304Z,6.83
2023-05-06T07:36:48.706Z,6.40
2023-05-06T07:39:16.840Z,6.70
2023-05-06T07:41:46.554Z,6.90
2023-05-06T07:44:14.723Z,6.57
2023-05-06T07:46:42.897Z,6.50
2023-05-06T07:49:11.149Z,6.40
2023-05-06T07:51:39.250Z,6.10
2023-05-06T07:54:07.328Z,5.83
2023-05-06T07:56:35.607Z,6.17
2023-05-06T07:59:05.235Z,6.27
2023-05-06T08:01:33.379Z,5.97
2023-05-06T08:04:01.557Z,6.20
2023-05-06T08:06:29.707Z,6.17
2023-05-06T08:08:58.061Z,6.03
2023-05-06T08:11:26.223Z,5.30
2023-05-06T08:13:54.457Z,5.50
2023-05-06T08:16:25.164Z,5.43
2023-05-06T08:18:53.639Z,5.93
2023-05-06T08:21:21.707Z,5.10
2023-05-06T08:23:49.782Z,5.73
2023-05-06T08:26:18.076Z,5.27
2023-05-06T08:28:46.140Z,5.50
2023-05-06T08:31:14.395Z,5.43
2023-05-06T08:33:43.896Z,5.33
2023-05-06T08:36:11.952Z,5.23
2023-05-06T08:38:40.030Z,4.33
2023-05-06T08:41:10.570Z,4.90
2023-05-06T08:43:42.690Z,4.83
2023-05-06T08:46:11.022Z,4.83
2023-05-06T08:48:39.558Z,4.73
2023-05-06T08:51:09.829Z,4.37
2023-05-06T08:53:37.975Z,4.27
2023-05-06T08:56:09.043Z,4.63
2023-05-06T08:58:38.695Z,3.77
2023-05-06T09:01:07.145Z,3.67
2023-05-06T09:03:35.297Z,3.87
2023-05-06T09:06:03.383Z,3.80
2023-05-06T09:08:32.753Z,3.57
2023-05-06T09:11:00.889Z,3.77
2023-05-06T09:13:29.246Z,4.00
2023-05-06T09:15:57.547Z,3.83
2023-05-06T09:18:25.882Z,3.90
2023-05-06T09:20:53.925Z,3.70
2023-05-06T09:23:23.806Z,3.13
2023-05-06T09:25:53.377Z,3.90
2023-05-06T09:28:21.490Z,3.93
2023-05-06T09:30:51.990Z,3.60
2023-05-06T09:33:20.081Z,3.63
2023-05-06T09:35:49.986Z,3.87
2023-05-06T09:38:18.111Z,3.30
2023-05-06T09:40:46.310Z,3.23
2023-05-06T09:43:16.710Z,4.07
2023-05-06T09:45:46.504Z,4.67
2023-05-06T09:48:18.981Z,3.93
2023-05-06T09:50:47.190Z,4.07
2023-05-06T09:53:18.073Z,3.87
2023-05-06T09:55:47.098Z,4.10
2023-05-06T09:58:17.823Z,3.27
2023-05-06T10:00:46.789Z,3.77
2023-05-06T10:03:16.499Z,3.90
2023-05-06T10:05:44.930Z,3.37
2023-05-06T10:08:18.440Z,3.90
2023-05-06T10:10:47.562Z,3.23
2023-05-06T10:13:17.902Z,3.13
2023-05-06T10:15:48.175Z,3.00
2023-05-06T10:18:18.166Z,3.07
2023-05-06T10:20:47.601Z,2.80
2023-05-06T10:23:25.430Z,2.30
2023-05-06T10:25:58.020Z,2.40
2023-05-06T10:28:30.558Z,2.47
2023-05-06T10:31:00.354Z,2.50
2023-05-06T10:33:30.191Z,2.70
2023-05-06T10:36:04.729Z,4.63
2023-05-06T10:38:36.896Z,2.37
2023-05-06T10:41:05.644Z,2.63
2023-05-06T10:43:36.290Z,3.40
2023-05-06T10:46:09.268Z,2.87
2023-05-06T10:48:38.661Z,2.77
2023-05-06T10:51:27.265Z,2.77
2023-05-06T10:54:04.031Z,3.27
2023-05-06T10:56:33.553Z,2.63
2023-05-06T10:59:11.009Z,2.33
2023-05-06T11:01:40.562Z,2.53
2023-05-06T11:04:13.141Z,2.17
2023-05-06T11:06:43.161Z,2.57
2023-05-06T11:09:18.803Z,2.53
2023-05-06T11:12:00.454Z,2.50
2023-05-06T11:14:31.150Z,3.07
2023-05-06T11:17:01.682Z,2.83
2023-05-06T11:19:31.509Z,2.80
2023-05-06T11:22:01.503Z,2.77
2023-05-06T11:24:31.913Z,2.50
2023-05-06T11:27:01.346Z,2.80
2023-05-06T11:29:30.879Z,2.63
2023-05-06T11:31:59.520Z,2.40
2023-05-06T11:34:28.909Z,3.10
2023-05-06T11:37:03.290Z,3.00
2023-05-06T11:39:36.691Z,2.83
2023-05-06T11:42:09.492Z,2.50
2023-05-06T11:44:40.629Z,2.15
2023-05-06T11:47:10.057Z,2.33
2023-05-06T11:49:39.777Z,2.13
2023-05-06T11:52:09.256Z,2.03
2023-05-06T11:54:39.671Z,1.80
2023-05-06T11:57:08.088Z,1.90
2023-05-06T11:59:39.432Z,1.93
2023-05-06T12:02:08.405Z,2.00
2023-05-06T12:04:41.281Z,2.50
2023-05-06T12:07:11.098Z,2.23
2023-05-06T12:09:41.846Z,2.27
2023-05-06T12:12:11.065Z,2.33
2023-05-06T12:14:41.324Z,1.87
2023-05-06T12:17:09.550Z,1.67
2023-05-06T12:19:37.843Z,1.60
2023-05-06T12:22:20.627Z,1.70
2023-05-06T12:24:49.433Z,1.90
2023-05-06T12:27:32.820Z,1.67
2023-05-06T12:30:04.533Z,1.60
2023-05-06T12:32:33.026Z,1.63
2023-05-06T12:35:05.790Z,1.97
2023-05-06T12:37:34.013Z,2.07
2023-05-06T12:40:02.155Z,2.42
2023-05-06T12:42:30.257Z,2.20
2023-05-06T12:44:58.405Z,1.70
2023-05-06T12:47:27.924Z,1.57
2023-05-06T12:49:58.316Z,1.67
2023-05-06T12:52:28.659Z,1.70
2023-05-06T12:54:57.383Z,1.73
2023-05-06T12:57:26.216Z,2.10
2023-05-06T12:59:56.224Z,2.10
2023-05-06T13:02:24.456Z,2.13
2023-05-06T13:04:54.025Z,1.83
2023-05-06T13:07:22.375Z,1.67
2023-05-06T13:09:50.567Z,1.73
2023-05-06T13:12:18.646Z,1.50
2023-05-06T13:14:46.741Z,1.90
2023-05-06T13:17:14.901Z,1.60
2023-05-06T13:19:43.066Z,1.87
2023-05-06T13:22:12.586Z,1.70
2023-05-06T13:24:40.770Z,2.00
2023-05-06T13:27:08.839Z,1.53
2023-05-06T13:29:37.068Z,2.00
2023-05-06T13:32:07.948Z,2.07
2023-05-06T13:34:36.984Z,1.60
2023-05-06T13:37:05.012Z,1.90
2023-05-06T13:39:34.478Z,2.20
2023-05-06T13:42:02.909Z,1.93
2023-05-06T13:44:31.271Z,1.40
2023-05-06T13:46:59.508Z,1.67
2023-05-06T13:49:27.634Z,1.70
2023-05-06T13:51:55.841Z,1.60
2023-05-06T13:54:24.075Z,1.67
2023-05-06T13:56:53.498Z,1.60
2023-05-06T13:59:21.595Z,1.90
2023-05-06T14:01:53.670Z,2.00
2023-05-06T14:04:21.837Z,1.50
2023-05-06T14:06:49.869Z,1.47
2023-05-06T14:09:18.114Z,1.70
2023-05-06T14:11:46.190Z,1.57
2023-05-06T14:14:15.882Z,2.20
2023-05-06T14:16:44.007Z,1.70
2023-05-06T14:19:12.094Z,1.67
2023-05-06T14:21:40.174Z,1.40
2023-05-06T14:24:08.507Z,1.57
2023-05-06T14:26:36.640Z,1.80
2023-05-06T14:29:04.807Z,1.77
2023-05-06T14:31:35.642Z,2.30
2023-05-06T14:34:03.898Z,2.00
2023-05-06T14:36:31.931Z,2.00
2023-05-06T14:39:00.082Z,2.17
2023-05-06T14:41:28.154Z,1.97
2023-05-06T14:43:56.250Z,2.00
2023-05-06T14:46:24.950Z,2.23
2023-05-06T14:48:55.947Z,2.13
2023-05-06T14:51:24.000Z,1.30
2023-05-06T14:53:52.087Z,2.20
2023-05-06T14:56:20.210Z,2.10
2023-05-06T14:58:48.298Z,1.80
2023-05-06T15:01:16.470Z,1.90
2023-05-06T15:03:45.229Z,1.80
2023-05-06T15:06:14.633Z,1.90
2023-05-06T15:08:42.828Z,2.57
2023-05-06T15:11:10.921Z,2.40
2023-05-06T15:13:39.011Z,2.20
2023-05-06T15:16:09.135Z,1.80
2023-05-06T15:18:41.679Z,2.20
2023-05-06T15:21:09.930Z,2.80
2023-05-06T15:23:39.385Z,1.73
2023-05-06T15:26:07.489Z,2.00
2023-05-06T15:28:35.600Z,1.90
2023-05-06T15:31:03.846Z,2.10
2023-05-06T15:33:31.959Z,2.50
2023-05-06T15:35:59.970Z,1.90
2023-05-06T15:38:28.018Z,2.63
2023-05-06T15:40:57.449Z,2.40
2023-05-06T15:43:33.280Z,2.07
2023-05-06T15:46:05.678Z,1.70
2023-05-06T15:48:33.856Z,2.47
2023-05-06T15:51:02.284Z,1.50
2023-05-06T15:53:30.349Z,2.23
2023-05-06T15:56:12.931Z,2.10
2023-05-06T15:58:46.239Z,2.30
2023-05-06T16:01:14.792Z,2.17
2023-05-06T16:03:43.274Z,2.33
2023-05-06T16:06:12.421Z,1.97
2023-05-06T16:08:41.004Z,2.13
2023-05-06T16:11:10.479Z,1.77
2023-05-06T16:13:38.546Z,2.60
2023-05-06T16:16:07.519Z,2.40
2023-05-06T16:18:35.799Z,2.40
2023-05-06T16:21:04.639Z,3.07
2023-05-06T16:23:32.791Z,3.00
2023-05-06T16:26:01.125Z,2.73
2023-05-06T16:28:30.609Z,2.03
2023-05-06T16:30:58.787Z,2.23
2023-05-06T16:33:26.845Z,2.20
2023-05-06T16:35:55.002Z,2.23
2023-05-06T16:38:23.023Z,2.20
2023-05-06T16:40:51.385Z,2.00
2023-05-06T16:43:19.725Z,2.20
2023-05-06T16:45:49.165Z,2.03
2023-05-06T16:48:17.745Z,2.50
2023-05-06T16:50:46.028Z,1.93
2023-05-06T16:53:14.735Z,2.47
2023-05-06T16:55:47.549Z,2.83
2023-05-06T16:58:15.947Z,2.03
2023-05-06T17:00:44.420Z,1.90
2023-05-06T17:03:14.376Z,2.37
2023-05-06T17:05:42.540Z,2.13
2023-05-06T17:08:10.913Z,2.60
2023-05-06T17:10:39.065Z,1.93
2023-05-06T17:13:07.139Z,2.00
2023-05-06T17:15:35.227Z,1.83
2023-05-06T17:18:03.736Z,2.13
2023-05-06T17:20:40.722Z,2.40
2023-05-06T17:23:16.079Z,2.47
2023-05-06T17:25:44.177Z,1.70
2023-05-06T17:28:12.304Z,1.87
2023-05-06T17:30:40.527Z,2.03
2023-05-06T17:33:08.643Z,2.37
2023-05-06T17:35:38.257Z,2.17
2023-05-06T17:38:06.380Z,2.10
2023-05-06T17:40:34.524Z,2.27
2023-05-06T17:43:02.606Z,2.00
2023-05-06T17:45:30.881Z,2.13
2023-05-06T17:47:59.006Z,2.30
2023-05-06T17:50:27.101Z,1.97
2023-05-06T17:52:56.577Z,2.43
2023-05-06T17:55:24.851Z,2.10
2023-05-06T17:57:53.453Z,2.10
2023-05-06T18:00:21.897Z,2.50
2023-05-06T18:02:50.038Z,2.57
2023-05-06T18:05:18.570Z,2.17
2023-05-06T18:07:47.880Z,2.10
2023-05-06T18:10:17.414Z,2.10
2023-05-06T18:12:46.259Z,2.47
2023-05-06T18:15:16.000Z,2.00
2023-05-06T18:17:44.105Z,3.40
2023-05-06T18:20:13.606Z,2.33
2023-05-06T18:22:42.969Z,2.47
2023-05-06T18:25:11.740Z,2.40
2023-05-06T18:27:41.508Z,2.73
2023-05-06T18:30:10.448Z,2.20
2023-05-06T18:32:38.557Z,2.47
